Time;durP1;ratioP1;P1;durP2;ratioP2;P2;SDS_P1;SDS_P2;PMS_P1;PMS_P2;Temp;Humidity;BMP_temperature;BMP_pressure;BME280_temperature;BME280_humidity;BME280_pressure;Samples;Min_cycle;Max_cycle;Signal;HPM_P1;HPM_P2
2021/12/15 00:00:58;;;;;;;13.10;1.80;;;;;;;;;;5016295;28;20033;-19
2021/12/15 00:03:25;;;;;;;7.72;1.95;;;;;;;;;;5015687;28;20042;-20
2021/12/15 00:05:51;;;;;;;6.07;1.70;;;;;;;;;;5016044;28;20034;-19
2021/12/15 00:08:18;;;;;;;13.30;2.07;;;;;;;;;;5015793;28;20025;-19
2021/12/15 00:10:46;;;;;;;9.82;2.22;;;;;;;;;;5016078;28;20260;-19
2021/12/15 00:13:13;;;;;;;10.77;2.03;;;;;;;;;;5015585;28;20030;-19
2021/12/15 00:15:40;;;;;;;10.32;1.95;;;;;;;;;;5015697;28;20048;-19
2021/12/15 00:18:07;;;;;;;7.53;1.30;;;;;;;;;;5015641;28;20364;-19
2021/12/15 00:20:33;;;;;;;14.43;1.80;;;;;;;;;;5015584;28;20542;-19
2021/12/15 00:23:00;;;;;;;9.18;1.55;;;;;;;;;;5015502;28;20448;-19
2021/12/15 00:25:28;;;;;;;6.43;1.50;;;;;;;;;;4998269;28;20107;-19
2021/12/15 00:27:55;;;;;;;8.82;1.45;;;;;;;;;;5015615;28;20080;-19
2021/12/15 00:30:21;;;;;;;8.80;1.30;;;;;;;;;;5015904;28;20037;-19
2021/12/15 00:32:49;;;;;;;9.30;1.70;;;;;;;;;;5015676;28;20034;-19
2021/12/15 00:35:15;;;;;;;7.20;1.50;;;;;;;;;;5015319;28;20026;-19
2021/12/15 00:37:41;;;;;;;6.78;1.52;;;;;;;;;;5015611;28;20029;-19
2021/12/15 00:40:11;;;;;;;10.20;2.50;;;;;;;;;;5014586;28;20040;-19
2021/12/15 00:42:37;;;;;;;7.78;1.92;;;;;;;;;;5015408;28;20416;-19
2021/12/15 00:45:04;;;;;;;4.60;1.73;;;;;;;;;;5015533;28;20461;-19
2021/12/15 00:47:30;;;;;;;8.38;1.50;;;;;;;;;;5015362;28;20057;-19
2021/12/15 00:49:56;;;;;;;6.63;1.13;;;;;;;;;;5015408;28;20045;-19
2021/12/15 00:52:22;;;;;;;7.20;1.70;;;;;;;;;;5015011;28;20034;-19
2021/12/15 00:54:49;;;;;;;12.43;1.40;;;;;;;;;;5015335;28;20588;-19
2021/12/15 00:57:15;;;;;;;6.37;1.10;;;;;;;;;;5014996;28;20049;-20
2021/12/15 00:59:42;;;;;;;6.63;1.00;;;;;;;;;;5015013;28;20304;-19
2021/12/15 01:02:09;;;;;;;4.80;1.45;;;;;;;;;;5014885;28;20038;-19
2021/12/15 01:04:36;;;;;;;8.05;1.75;;;;;;;;;;5014784;28;20104;-19
2021/12/15 01:07:05;;;;;;;8.80;1.83;;;;;;;;;;5014868;28;20464;-19
2021/12/15 01:09:41;;;;;;;8.98;1.73;;;;;;;;;;5015146;28;20365;-19
2021/12/15 01:12:19;;;;;;;6.63;1.40;;;;;;;;;;5014789;28;20034;-19
2021/12/15 01:20:24;;;;;;;5.55;1.50;;;;;;;;;;5015092;28;20040;-19
2021/12/15 01:22:52;;;;;;;6.72;1.75;;;;;;;;;;5014894;28;20099;-19
2021/12/15 01:25:18;;;;;;;6.57;1.42;;;;;;;;;;5015181;28;20033;-19
2021/12/15 01:27:46;;;;;;;6.30;1.55;;;;;;;;;;5014661;28;20088;-19
2021/12/15 01:30:13;;;;;;;6.22;1.20;;;;;;;;;;5014611;28;20018;-19
2021/12/15 01:32:40;;;;;;;7.40;1.58;;;;;;;;;;5014853;28;20076;-19
2021/12/15 01:35:07;;;;;;;4.70;1.33;;;;;;;;;;4997843;28;20026;-19
2021/12/15 01:37:33;;;;;;;7.43;1.80;;;;;;;;;;5014963;28;20121;-19
2021/12/15 01:40:00;;;;;;;10.97;1.57;;;;;;;;;;5014918;28;20105;-19
2021/12/15 01:42:30;;;;;;;9.00;1.63;;;;;;;;;;4997219;28;20312;-19
2021/12/15 01:47:41;;;;;;;9.90;1.40;;;;;;;;;;5014515;28;20048;-20
2021/12/15 01:50:08;;;;;;;5.97;1.20;;;;;;;;;;5014823;28;20388;-19
2021/12/15 01:52:35;;;;;;;;;;;;;;;;;;5017832;28;20449;-20
2021/12/15 01:55:04;;;;;;;4.53;1.17;;;;;;;;;;5018756;28;20244;-19
2021/12/15 01:57:31;;;;;;;4.72;1.20;;;;;;;;;;5018388;28;20033;-19
2021/12/15 01:59:57;;;;;;;;;;;;;;;;;;5018723;28;20034;-19
2021/12/15 02:02:23;;;;;;;8.03;1.50;;;;;;;;;;5018217;28;19966;-19
2021/12/15 02:04:50;;;;;;;7.05;1.50;;;;;;;;;;5018070;28;20469;-20
2021/12/15 02:07:18;;;;;;;5.18;1.35;;;;;;;;;;5018130;28;20457;-19
2021/12/15 02:10:01;;;;;;;7.50;1.30;;;;;;;;;;5018374;28;20038;-19
2021/12/15 02:12:32;;;;;;;5.70;1.40;;;;;;;;;;5018538;28;20026;-19
2021/12/15 02:14:59;;;;;;;6.07;1.10;;;;;;;;;;5018032;28;20021;-19
2021/12/15 02:17:25;;;;;;;5.50;1.30;;;;;;;;;;5018301;28;20349;-19
2021/12/15 02:19:52;;;;;;;4.97;1.13;;;;;;;;;;5018248;28;20342;-19
2021/12/15 02:22:18;;;;;;;8.33;1.90;;;;;;;;;;5017905;28;20480;-19
2021/12/15 02:24:48;;;;;;;8.63;1.40;;;;;;;;;;5017912;28;20088;-19
2021/12/15 02:27:14;;;;;;;5.65;1.20;;;;;;;;;;5000510;28;20295;-19
2021/12/15 02:29:44;;;;;;;5.80;1.30;;;;;;;;;;5017762;28;20034;-19
2021/12/15 02:37:20;;;;;;;5.32;1.52;;;;;;;;;;5017676;28;20029;-19
2021/12/15 02:39:54;;;;;;;7.85;1.33;;;;;;;;;;5017891;28;20109;-19
2021/12/15 02:42:22;;;;;;;9.30;1.33;;;;;;;;;;5017830;28;20100;-19
2021/12/15 02:44:49;;;;;;;4.20;1.17;;;;;;;;;;5018046;28;20381;-19
2021/12/15 02:47:17;;;;;;;3.83;1.33;;;;;;;;;;5000172;28;20428;-19
2021/12/15 02:49:43;;;;;;;5.70;0.95;;;;;;;;;;5017346;28;20050;-19
2021/12/15 02:52:10;;;;;;;7.00;1.63;;;;;;;;;;5017251;28;20064;-19
2021/12/15 02:54:36;;;;;;;5.38;2.15;;;;;;;;;;5017247;28;20272;-19
2021/12/15 02:57:07;;;;;;;5.77;1.20;;;;;;;;;;5017587;28;20528;-19
2021/12/15 02:59:44;;;;;;;4.00;1.10;;;;;;;;;;5017190;28;20030;-19
2021/12/15 03:04:52;;;;;;;5.82;1.38;;;;;;;;;;5016179;28;20057;-19
2021/12/15 03:07:36;;;;;;;4.82;1.65;;;;;;;;;;5017257;28;20045;-19
2021/12/15 03:15:35;;;;;;;5.15;1.05;;;;;;;;;;5017026;28;20072;-19
2021/12/15 03:18:04;;;;;;;5.60;1.63;;;;;;;;;;5016864;28;20029;-20
2021/12/15 03:20:33;;;;;;;5.60;1.40;;;;;;;;;;5000255;28;20103;-19
2021/12/15 03:22:59;;;;;;;4.03;1.33;;;;;;;;;;5016672;28;20060;-19
2021/12/15 03:25:29;;;;;;;3.53;0.98;;;;;;;;;;5016643;28;20030;-19
2021/12/15 03:33:39;;;;;;;4.30;1.35;;;;;;;;;;5016767;28;20052;-19
2021/12/15 03:36:10;;;;;;;3.50;1.13;;;;;;;;;;5016703;28;20022;-19
2021/12/15 03:38:37;;;;;;;4.40;0.80;;;;;;;;;;5016316;28;20026;-19
2021/12/15 03:41:05;;;;;;;4.90;0.98;;;;;;;;;;5016358;28;20037;-19
2021/12/15 03:43:33;;;;;;;3.42;1.05;;;;;;;;;;5016230;28;20034;-19
2021/12/15 03:46:01;;;;;;;4.53;1.27;;;;;;;;;;5016485;28;20033;-19
2021/12/15 03:48:29;;;;;;;5.38;1.45;;;;;;;;;;5016461;28;20022;-19
2021/12/15 03:50:56;;;;;;;4.38;1.17;;;;;;;;;;5016109;28;20041;-19
2021/12/15 03:53:23;;;;;;;2.05;0.88;;;;;;;;;;5016089;28;20361;-19
2021/12/15 03:55:49;;;;;;;4.72;1.73;;;;;;;;;;5016756;28;20030;-19
2021/12/15 03:58:16;;;;;;;5.23;0.90;;;;;;;;;;5016084;28;20476;-19
2021/12/15 04:00:45;;;;;;;5.75;1.73;;;;;;;;;;5015972;28;20065;-19
2021/12/15 04:03:22;;;;;;;3.53;0.95;;;;;;;;;;5015809;28;20040;-19
2021/12/15 04:05:48;;;;;;;5.38;1.08;;;;;;;;;;4977181;28;20039;-19
2021/12/15 04:08:15;;;;;;;3.17;1.00;;;;;;;;;;4976875;28;20034;-19
2021/12/15 04:10:41;;;;;;;4.93;1.45;;;;;;;;;;4976761;28;20027;-19
2021/12/15 04:13:09;;;;;;;4.60;1.07;;;;;;;;;;4976693;28;20102;-19
2021/12/15 04:15:44;;;;;;;4.15;0.85;;;;;;;;;;4976608;28;20320;-19
2021/12/15 04:18:10;;;;;;;5.15;1.10;;;;;;;;;;4976972;28;20354;-19
2021/12/15 04:20:38;;;;;;;5.05;0.98;;;;;;;;;;4976831;28;20039;-19
2021/12/15 04:23:05;;;;;;;2.70;0.90;;;;;;;;;;4976753;28;20023;-19
2021/12/15 04:25:33;;;;;;;3.83;1.00;;;;;;;;;;4976738;28;20041;-20
2021/12/15 04:28:04;;;;;;;4.03;0.95;;;;;;;;;;4976388;28;20354;-19
2021/12/15 04:30:32;;;;;;;5.65;1.08;;;;;;;;;;4976396;28;20105;-19
2021/12/15 04:33:00;;;;;;;4.25;0.98;;;;;;;;;;4976601;28;20038;-19
2021/12/15 04:35:27;;;;;;;5.97;1.00;;;;;;;;;;4976599;28;20378;-19
2021/12/15 04:37:53;;;;;;;4.93;1.07;;;;;;;;;;4976275;28;20442;-19
2021/12/15 04:40:21;;;;;;;4.43;0.90;;;;;;;;;;4976499;28;20030;-19
2021/12/15 04:42:47;;;;;;;10.32;1.30;;;;;;;;;;4976578;28;20443;-19
2021/12/15 04:45:15;;;;;;;4.90;1.33;;;;;;;;;;4976162;28;20481;-19
2021/12/15 04:47:42;;;;;;;7.03;0.95;;;;;;;;;;4976072;28;20062;-19
2021/12/15 04:50:09;;;;;;;4.03;1.35;;;;;;;;;;4976084;28;20374;-19
2021/12/15 04:52:35;;;;;;;;;;;;;;;;;;4976343;28;20027;-19
2021/12/15 04:55:02;;;;;;;2.73;0.93;;;;;;;;;;4974901;28;19913;-19
2021/12/15 04:57:28;;;;;;;;;;;;;;;;;;4976143;28;20353;-19
2021/12/15 04:59:55;;;;;;;3.22;1.10;;;;;;;;;;4975763;28;19952;-19
2021/12/15 05:02:22;;;;;;;5.43;1.10;;;;;;;;;;4975807;28;20046;-19
2021/12/15 05:04:49;;;;;;;3.08;1.10;;;;;;;;;;5000900;28;20050;-19
2021/12/15 05:07:16;;;;;;;2.88;1.08;;;;;;;;;;5014607;28;20465;-20
2021/12/15 05:09:44;;;;;;;6.30;1.30;;;;;;;;;;5014881;28;20449;-19
2021/12/15 05:12:11;;;;;;;5.95;1.08;;;;;;;;;;5014509;28;20449;-19
2021/12/15 05:14:38;;;;;;;4.15;1.13;;;;;;;;;;5014732;28;20398;-20
2021/12/15 05:17:04;;;;;;;4.57;1.00;;;;;;;;;;5014749;28;20321;-20
2021/12/15 05:19:32;;;;;;;6.18;1.13;;;;;;;;;;5014697;28;20269;-19
2021/12/15 05:21:58;;;;;;;6.90;1.13;;;;;;;;;;5014256;28;20030;-19
2021/12/15 05:26:55;;;;;;;4.20;1.02;;;;;;;;;;5014018;28;20288;-20
2021/12/15 05:29:21;;;;;;;5.28;1.35;;;;;;;;;;5014264;28;20037;-20
2021/12/15 05:31:48;;;;;;;5.22;1.30;;;;;;;;;;4996812;28;20029;-19
2021/12/15 05:34:14;;;;;;;5.50;1.40;;;;;;;;;;5014155;28;20033;-20
2021/12/15 05:36:42;;;;;;;3.37;1.10;;;;;;;;;;4996835;28;20030;-19
2021/12/15 05:39:09;;;;;;;5.45;1.60;;;;;;;;;;4996981;28;20096;-20
2021/12/15 05:41:35;;;;;;;6.55;1.10;;;;;;;;;;5013918;28;20121;-20
2021/12/15 05:44:03;;;;;;;6.15;1.20;;;;;;;;;;5014809;28;20025;-19
2021/12/15 05:46:29;;;;;;;;;;;;;;;;;;5014452;28;20108;-19
2021/12/15 05:48:55;;;;;;;7.70;1.83;;;;;;;;;;5014628;28;19916;-20
2021/12/15 05:51:21;;;;;;;8.90;1.97;;;;;;;;;;5014287;28;20034;-20
2021/12/15 05:53:48;;;;;;;7.10;1.17;;;;;;;;;;4996987;28;20077;-20
2021/12/15 05:56:14;;;;;;;9.27;1.75;;;;;;;;;;5014279;28;20464;-20
2021/12/15 05:58:41;;;;;;;10.60;1.35;;;;;;;;;;5014259;28;20476;-20
2021/12/15 06:01:07;;;;;;;10.43;2.50;;;;;;;;;;5013799;28;20033;-21
2021/12/15 06:03:34;;;;;;;15.43;1.85;;;;;;;;;;5013799;28;20030;-20
2021/12/15 06:06:00;;;;;;;8.13;1.70;;;;;;;;;;5014343;28;20084;-20
2021/12/15 06:08:26;;;;;;;11.77;1.50;;;;;;;;;;5014059;28;20018;-19
2021/12/15 06:10:53;;;;;;;13.25;1.95;;;;;;;;;;5014150;28;20026;-19
2021/12/15 06:13:22;;;;;;;12.40;2.05;;;;;;;;;;4996415;28;20173;-19
2021/12/15 06:15:49;;;;;;;9.98;1.67;;;;;;;;;;5013762;28;20057;-19
2021/12/15 06:18:17;;;;;;;13.43;1.70;;;;;;;;;;5013747;28;20034;-19
2021/12/15 06:20:44;;;;;;;23.50;3.17;;;;;;;;;;4996267;28;20360;-21
2021/12/15 06:23:16;;;;;;;15.75;1.90;;;;;;;;;;5013690;28;20041;-20
2021/12/15 06:25:44;;;;;;;13.15;2.83;;;;;;;;;;4996441;28;20454;-19
2021/12/15 06:28:10;;;;;;;;;;;;;;;;;;4996951;28;20034;-18
2021/12/15 06:30:37;;;;;;;15.23;1.93;;;;;;;;;;5013664;28;19910;-19
2021/12/15 06:33:04;;;;;;;10.35;2.20;;;;;;;;;;5014019;28;20257;-20
2021/12/15 06:35:31;;;;;;;11.15;2.30;;;;;;;;;;5013908;28;20060;-20
2021/12/15 06:37:58;;;;;;;7.22;1.60;;;;;;;;;;4996526;28;20034;-20
2021/12/15 06:40:24;;;;;;;10.02;2.03;;;;;;;;;;5017366;28;20029;-19
2021/12/15 06:42:50;;;;;;;13.02;2.63;;;;;;;;;;5017153;28;20053;-19
2021/12/15 06:45:21;;;;;;;14.37;3.27;;;;;;;;;;5017102;28;20030;-19
2021/12/15 06:58:46;;;;;;;17.10;3.40;;;;;;;;;;5016929;28;20041;-20
2021/12/15 07:01:13;;;;;;;9.48;1.73;;;;;;;;;;5016942;28;20030;-20
2021/12/15 07:03:40;;;;;;;12.45;2.10;;;;;;;;;;5016496;28;20037;-20
2021/12/15 07:06:06;;;;;;;9.30;1.98;;;;;;;;;;5017104;28;20129;-19
2021/12/15 07:08:33;;;;;;;12.00;2.73;;;;;;;;;;5016868;28;20057;-19
2021/12/15 07:11:01;;;;;;;11.07;2.08;;;;;;;;;;5016360;28;20102;-19
2021/12/15 07:13:28;;;;;;;8.00;1.38;;;;;;;;;;4999142;28;20037;-18
2021/12/15 07:16:00;;;;;;;9.82;2.05;;;;;;;;;;5016496;28;20018;-19
2021/12/15 07:18:37;;;;;;;11.63;2.00;;;;;;;;;;5016514;28;20040;-20
2021/12/15 07:21:08;;;;;;;10.90;1.95;;;;;;;;;;4998956;28;20030;-20
2021/12/15 07:23:34;;;;;;;14.77;2.00;;;;;;;;;;5016290;28;20041;-20
2021/12/15 07:26:01;;;;;;;10.35;1.80;;;;;;;;;;4998730;28;20030;-20
2021/12/15 07:28:27;;;;;;;13.13;1.95;;;;;;;;;;5016165;28;20029;-19
2021/12/15 07:30:54;;;;;;;9.97;1.43;;;;;;;;;;5016201;28;20441;-19
2021/12/15 07:33:21;;;;;;;8.70;2.10;;;;;;;;;;5015774;28;20745;-20
2021/12/15 07:35:47;;;;;;;10.68;2.20;;;;;;;;;;5015904;28;20037;-19
2021/12/15 07:38:14;;;;;;;22.42;2.20;;;;;;;;;;5016002;28;20033;-19
2021/12/15 07:40:41;;;;;;;7.07;1.47;;;;;;;;;;5016366;28;20045;-20
2021/12/15 07:43:12;;;;;;;7.43;2.07;;;;;;;;;;5015806;28;20261;-20
2021/12/15 07:45:51;;;;;;;5.60;1.52;;;;;;;;;;5015907;28;20113;-20
2021/12/15 07:48:19;;;;;;;13.60;2.53;;;;;;;;;;5016091;28;20449;-20
2021/12/15 07:50:49;;;;;;;8.85;2.20;;;;;;;;;;5015465;28;20028;-21
2021/12/15 07:53:18;;;;;;;8.50;1.88;;;;;;;;;;4998485;28;20026;-19
2021/12/15 07:55:45;;;;;;;11.40;1.45;;;;;;;;;;5015985;28;20105;-19
2021/12/15 07:58:12;;;;;;;14.30;2.45;;;;;;;;;;5015618;28;20042;-20
2021/12/15 08:00:39;;;;;;;11.35;1.90;;;;;;;;;;4998437;28;20054;-20
2021/12/15 08:03:07;;;;;;;11.63;2.40;;;;;;;;;;5015593;28;20409;-19
2021/12/15 08:05:33;;;;;;;;;;;;;;;;;;4995934;28;20133;-20
2021/12/15 08:07:59;;;;;;;7.32;1.88;;;;;;;;;;4996115;28;19916;-20
2021/12/15 08:10:27;;;;;;;11.07;1.52;;;;;;;;;;4995019;28;20023;-18
2021/12/15 08:12:53;;;;;;;;;;;;;;;;;;4996479;28;20327;-20
2021/12/15 08:15:19;;;;;;;7.60;2.13;;;;;;;;;;4995828;28;20405;-19
2021/12/15 08:17:50;;;;;;;8.02;2.05;;;;;;;;;;4995936;28;20505;-20
2021/12/15 08:20:20;;;;;;;13.32;3.15;;;;;;;;;;4995667;28;20046;-19
2021/12/15 08:22:48;;;;;;;14.50;2.22;;;;;;;;;;4995961;28;20105;-19
2021/12/15 08:25:15;;;;;;;10.90;1.95;;;;;;;;;;4995812;28;20026;-19
2021/12/15 08:27:41;;;;;;;;;;;;;;;;;;4995993;28;20026;-20
2021/12/15 08:30:11;;;;;;;10.73;2.07;;;;;;;;;;4995713;28;19913;-19
2021/12/15 08:32:38;;;;;;;14.10;1.95;;;;;;;;;;4994403;28;20149;-19
2021/12/15 08:35:06;;;;;;;15.88;2.45;;;;;;;;;;4995420;28;20038;-19
2021/12/15 08:37:33;;;;;;;11.88;2.25;;;;;;;;;;4995609;28;20026;-19
2021/12/15 08:40:02;;;;;;;14.45;2.72;;;;;;;;;;4996042;28;20028;-19
2021/12/15 08:42:30;;;;;;;9.30;1.77;;;;;;;;;;4995141;28;20026;-20
2021/12/15 08:44:57;;;;;;;15.18;2.13;;;;;;;;;;4995527;28;20026;-19
2021/12/15 08:47:25;;;;;;;10.98;1.67;;;;;;;;;;4995544;28;20058;-19
2021/12/15 08:49:53;;;;;;;7.95;1.85;;;;;;;;;;4995248;28;20097;-19
2021/12/15 08:52:20;;;;;;;10.57;1.98;;;;;;;;;;4995313;28;20030;-18
2021/12/15 08:54:46;;;;;;;;;;;;;;;;;;4995438;28;20133;-20
2021/12/15 08:57:13;;;;;;;11.77;2.03;;;;;;;;;;4995054;28;20318;-20
2021/12/15 08:59:40;;;;;;;;;;;;;;;;;;4995295;28;20339;-19
2021/12/15 09:02:08;;;;;;;9.27;2.13;;;;;;;;;;4994447;28;19905;-18
2021/12/15 09:04:34;;;;;;;8.38;1.80;;;;;;;;;;5005253;28;20319;-19
2021/12/15 09:07:00;;;;;;;9.15;1.70;;;;;;;;;;5014967;28;20029;-20
2021/12/15 09:09:29;;;;;;;12.67;2.63;;;;;;;;;;5014803;28;20086;-20
2021/12/15 09:11:56;;;;;;;12.07;3.25;;;;;;;;;;5014395;28;20026;-19
2021/12/15 09:14:22;;;;;;;;;;;;;;;;;;5014953;28;20021;-20
2021/12/15 09:16:52;;;;;;;13.13;2.25;;;;;;;;;;5014748;28;20252;-19
2021/12/15 09:19:19;;;;;;;8.38;1.80;;;;;;;;;;5014655;28;20333;-20
2021/12/15 09:21:46;;;;;;;9.63;1.60;;;;;;;;;;5014630;28;20053;-18
2021/12/15 09:24:13;;;;;;;;;;;;;;;;;;5015014;28;20503;-19
2021/12/15 09:26:40;;;;;;;;;;;;;;;;;;5014712;28;19920;-20
2021/12/15 09:29:07;;;;;;;18.92;2.67;;;;;;;;;;5014356;28;19942;-19
2021/12/15 09:31:34;;;;;;;10.63;1.65;;;;;;;;;;5014678;28;20104;-19
2021/12/15 09:34:00;;;;;;;12.45;1.83;;;;;;;;;;5014618;28;20034;-19
2021/12/15 09:36:27;;;;;;;11.90;2.50;;;;;;;;;;5014307;28;20137;-19
2021/12/15 09:39:02;;;;;;;9.95;1.85;;;;;;;;;;5014481;28;20036;-20
2021/12/15 09:41:29;;;;;;;15.73;2.42;;;;;;;;;;4997371;28;20041;-20
2021/12/15 09:43:58;;;;;;;11.25;2.50;;;;;;;;;;5014427;28;20026;-20
2021/12/15 09:46:34;;;;;;;13.68;2.80;;;;;;;;;;5014114;28;20083;-19
2021/12/15 09:57:27;;;;;;;10.13;1.30;;;;;;;;;;5013987;28;20422;-20
2021/12/15 10:11:14;;;;;;;12.57;1.98;;;;;;;;;;5014005;28;20036;-20
2021/12/15 10:19:25;;;;;;;18.65;2.22;;;;;;;;;;5017476;28;20045;-20
2021/12/15 10:21:57;;;;;;;6.75;1.63;;;;;;;;;;5017238;28;20061;-20
2021/12/15 10:24:37;;;;;;;8.32;1.45;;;;;;;;;;5017420;28;20026;-20
2021/12/15 10:27:05;;;;;;;11.40;1.73;;;;;;;;;;5017116;28;20029;-19
2021/12/15 10:29:33;;;;;;;10.18;2.45;;;;;;;;;;5017240;28;20026;-19
2021/12/15 10:32:05;;;;;;;11.63;1.60;;;;;;;;;;5000483;28;20327;-19
2021/12/15 10:34:31;;;;;;;13.95;3.17;;;;;;;;;;5017041;28;20119;-20
2021/12/15 10:36:58;;;;;;;7.50;1.80;;;;;;;;;;5000159;28;20037;-20
2021/12/15 10:39:25;;;;;;;9.73;2.13;;;;;;;;;;5017150;28;20458;-20
2021/12/15 10:41:55;;;;;;;8.15;2.17;;;;;;;;;;5016973;28;20038;-20
2021/12/15 10:44:24;;;;;;;7.32;2.13;;;;;;;;;;4999739;28;20129;-19
2021/12/15 10:47:05;;;;;;;12.38;2.58;;;;;;;;;;5017003;28;20065;-19
2021/12/15 10:49:33;;;;;;;8.13;1.60;;;;;;;;;;5017111;28;20030;-19
2021/12/15 10:52:04;;;;;;;17.38;1.80;;;;;;;;;;5016901;28;20030;-19
2021/12/15 10:54:36;;;;;;;18.10;2.90;;;;;;;;;;4999646;28;20025;-19
2021/12/15 10:57:08;;;;;;;16.30;2.45;;;;;;;;;;5016737;28;20044;-19
2021/12/15 10:59:43;;;;;;;7.88;2.25;;;;;;;;;;5016869;28;20053;-19
2021/12/15 11:02:16;;;;;;;10.55;1.80;;;;;;;;;;5016750;28;20108;-19
2021/12/15 11:04:45;;;;;;;10.55;2.20;;;;;;;;;;5016358;28;20073;-19
2021/12/15 11:07:31;;;;;;;11.52;2.00;;;;;;;;;;5016633;28;20030;-19
2021/12/15 11:10:01;;;;;;;12.82;2.60;;;;;;;;;;4999303;28;20117;-21
2021/12/15 11:12:41;;;;;;;13.45;2.10;;;;;;;;;;4999294;28;20337;-19
2021/12/15 11:15:10;;;;;;;16.25;2.15;;;;;;;;;;5016872;28;20096;-21
2021/12/15 11:17:41;;;;;;;11.85;2.03;;;;;;;;;;5016983;28;20109;-20
2021/12/15 11:20:09;;;;;;;10.32;2.10;;;;;;;;;;5016559;28;20088;-19
2021/12/15 11:22:38;;;;;;;11.00;2.20;;;;;;;;;;5016663;28;20033;-26
2021/12/15 11:25:10;;;;;;;25.42;3.35;;;;;;;;;;4998481;28;20112;-19
2021/12/15 11:27:37;;;;;;;9.98;1.65;;;;;;;;;;5016615;28;20044;-20
2021/12/15 11:30:05;;;;;;;12.60;1.85;;;;;;;;;;5016422;28;20069;-19
2021/12/15 11:32:49;;;;;;;5.85;1.50;;;;;;;;;;5016363;28;20034;-19
2021/12/15 11:35:20;;;;;;;14.27;2.65;;;;;;;;;;5016478;28;20029;-19
2021/12/15 11:37:57;;;;;;;15.95;2.42;;;;;;;;;;5016682;28;20034;-19
2021/12/15 11:40:29;;;;;;;8.90;1.70;;;;;;;;;;5016478;28;20330;-19
2021/12/15 11:42:56;;;;;;;10.82;2.35;;;;;;;;;;5016105;28;20061;-20
2021/12/15 11:45:23;;;;;;;9.88;2.50;;;;;;;;;;5016172;28;20030;-19
2021/12/15 11:47:50;;;;;;;14.65;1.95;;;;;;;;;;5016202;28;20112;-20
2021/12/15 11:50:20;;;;;;;16.48;2.63;;;;;;;;;;4998578;28;20488;-19
2021/12/15 11:52:50;;;;;;;12.55;1.90;;;;;;;;;;4998436;28;20113;-20
2021/12/15 11:55:31;;;;;;;16.20;2.30;;;;;;;;;;5015958;28;20112;-20
2021/12/15 11:57:58;;;;;;;15.68;1.95;;;;;;;;;;5015994;28;20071;-20
2021/12/15 12:00:25;;;;;;;;;;;;;;;;;;5016243;28;20056;-20
2021/12/15 12:02:55;;;;;;;16.42;2.13;;;;;;;;;;5015937;28;19910;-20
2021/12/15 12:05:25;;;;;;;19.73;2.47;;;;;;;;;;5015420;28;20061;-19
2021/12/15 12:07:57;;;;;;;18.38;2.78;;;;;;;;;;5015759;28;20462;-19
2021/12/15 12:10:27;;;;;;;13.20;2.45;;;;;;;;;;5015701;28;20317;-20
2021/12/15 12:13:04;;;;;;;10.90;2.72;;;;;;;;;;5015003;28;20095;-20
2021/12/15 12:15:32;;;;;;;13.32;2.25;;;;;;;;;;5015246;28;20049;-21
2021/12/15 12:18:00;;;;;;;8.32;1.98;;;;;;;;;;5015200;28;20098;-19
2021/12/15 12:20:35;;;;;;;16.98;3.00;;;;;;;;;;5015382;28;20054;-20
2021/12/15 12:23:04;;;;;;;15.95;2.75;;;;;;;;;;4997665;28;20030;-20
2021/12/15 12:25:35;;;;;;;12.95;2.30;;;;;;;;;;4997655;28;20113;-19
2021/12/15 12:28:01;;;;;;;7.43;2.30;;;;;;;;;;5014855;28;20025;-20
2021/12/15 12:30:30;;;;;;;12.75;2.83;;;;;;;;;;4997570;28;20030;-19
2021/12/15 12:32:58;;;;;;;10.48;1.98;;;;;;;;;;5014790;28;20029;-18
2021/12/15 12:35:28;;;;;;;10.57;2.05;;;;;;;;;;4996776;28;20029;-19
2021/12/15 12:37:57;;;;;;;11.18;2.42;;;;;;;;;;5014509;28;20070;-20
2021/12/15 12:40:28;;;;;;;14.45;2.88;;;;;;;;;;5014823;28;20030;-20
2021/12/15 12:42:55;;;;;;;12.35;3.08;;;;;;;;;;5014900;28;20084;-20
2021/12/15 12:45:38;;;;;;;21.52;2.63;;;;;;;;;;5015160;28;20034;-20
2021/12/15 12:48:31;;;;;;;17.00;2.33;;;;;;;;;;5014760;28;20065;-19
2021/12/15 12:59:50;;;;;;;14.05;2.63;;;;;;;;;;5013243;28;20104;-19
2021/12/15 13:05:28;;;;;;;26.60;2.78;;;;;;;;;;5014304;28;20065;-19
2021/12/15 13:07:57;;;;;;;18.23;2.80;;;;;;;;;;5014469;28;20066;-20
2021/12/15 13:10:45;;;;;;;12.80;2.60;;;;;;;;;;5014590;28;20456;-19
2021/12/15 13:13:16;;;;;;;12.75;2.65;;;;;;;;;;5013632;28;20507;-23
2021/12/15 13:15:44;;;;;;;17.38;2.67;;;;;;;;;;5014322;28;20048;-19
2021/12/15 13:18:13;;;;;;;15.52;1.92;;;;;;;;;;5014594;28;20056;-20
2021/12/15 13:20:40;;;;;;;10.60;2.22;;;;;;;;;;4997264;28;20034;-20
2021/12/15 13:23:34;;;;;;;18.52;2.92;;;;;;;;;;5014321;28;20446;-20
2021/12/15 13:28:52;;;;;;;15.37;3.00;;;;;;;;;;5014165;28;20076;-21
2021/12/15 13:31:28;;;;;;;13.52;3.15;;;;;;;;;;4996912;28;20057;-21
2021/12/15 13:33:55;;;;;;;15.07;3.17;;;;;;;;;;5013908;28;20034;-20
2021/12/15 13:36:24;;;;;;;11.88;2.25;;;;;;;;;;5014199;28;20101;-20
2021/12/15 13:38:58;;;;;;;24.10;3.20;;;;;;;;;;5014169;28;20068;-20
2021/12/15 13:41:36;;;;;;;13.63;2.78;;;;;;;;;;5014120;28;20037;-20
2021/12/15 13:44:02;;;;;;;;;;;;;;;;;;4997196;28;20051;-20
2021/12/15 13:46:29;;;;;;;21.90;2.60;;;;;;;;;;5014517;28;19932;-20
2021/12/15 13:48:57;;;;;;;16.33;2.10;;;;;;;;;;5017908;28;20033;-21
2021/12/15 13:51:42;;;;;;;20.33;2.70;;;;;;;;;;5018389;28;20025;-19
2021/12/15 13:54:32;;;;;;;13.02;1.92;;;;;;;;;;5017979;28;20492;-18
2021/12/15 13:56:59;;;;;;;15.60;3.08;;;;;;;;;;5005365;28;20042;-19
2021/12/15 13:59:33;;;;;;;20.17;2.90;;;;;;;;;;5017618;28;20111;-19
2021/12/15 14:02:13;;;;;;;20.00;2.78;;;;;;;;;;5017456;28;20026;-19
2021/12/15 14:04:43;;;;;;;9.88;1.95;;;;;;;;;;4996962;28;20054;-20
2021/12/15 14:07:28;;;;;;;14.60;2.38;;;;;;;;;;4998132;28;20038;-19
2021/12/15 14:09:58;;;;;;;16.45;2.58;;;;;;;;;;4998071;28;20022;-19
2021/12/15 14:12:48;;;;;;;13.65;2.10;;;;;;;;;;4998254;28;20042;-19
2021/12/15 14:15:42;;;;;;;15.68;2.42;;;;;;;;;;4987518;28;20435;-19
2021/12/15 14:18:09;;;;;;;23.75;2.80;;;;;;;;;;4998440;28;20381;-19
2021/12/15 14:20:57;;;;;;;18.65;2.95;;;;;;;;;;4998069;28;20034;-19
2021/12/15 14:23:26;;;;;;;14.48;2.03;;;;;;;;;;4998339;28;20030;-19
2021/12/15 14:25:52;;;;;;;19.27;2.20;;;;;;;;;;4998266;28;20033;-19
2021/12/15 14:28:20;;;;;;;19.10;2.45;;;;;;;;;;4997937;28;20417;-19
2021/12/15 14:30:48;;;;;;;10.07;2.00;;;;;;;;;;4997912;28;20034;-26
2021/12/15 14:33:41;;;;;;;19.35;3.33;;;;;;;;;;4998135;28;20034;-20
2021/12/15 14:36:10;;;;;;;8.05;1.88;;;;;;;;;;4994528;28;20046;-20
2021/12/15 14:38:36;;;;;;;15.70;2.00;;;;;;;;;;4996989;28;20030;-20
2021/12/15 14:41:13;;;;;;;12.80;1.88;;;;;;;;;;4997946;28;20038;-20
2021/12/15 14:43:41;;;;;;;11.68;1.95;;;;;;;;;;4997830;28;20049;-20
2021/12/15 14:46:24;;;;;;;11.43;1.90;;;;;;;;;;4996738;28;20045;-20
2021/12/15 14:49:11;;;;;;;11.38;2.58;;;;;;;;;;4997642;28;20038;-20
2021/12/15 14:51:38;;;;;;;16.38;2.40;;;;;;;;;;4997983;28;20093;-20
2021/12/15 14:54:05;;;;;;;15.43;2.53;;;;;;;;;;4997558;28;20030;-20
2021/12/15 14:56:39;;;;;;;16.30;2.80;;;;;;;;;;4996666;28;20065;-20
2021/12/15 14:59:07;;;;;;;13.85;2.95;;;;;;;;;;4996689;28;20035;-20
2021/12/15 15:01:34;;;;;;;10.18;2.92;;;;;;;;;;4997684;28;20071;-19
2021/12/15 15:04:06;;;;;;;17.10;2.20;;;;;;;;;;5002103;28;20475;-21
2021/12/15 15:06:33;;;;;;;7.93;2.95;;;;;;;;;;5016965;28;20486;-20
2021/12/15 15:09:11;;;;;;;11.50;2.38;;;;;;;;;;5016783;28;20121;-20
2021/12/15 15:11:51;;;;;;;16.65;2.78;;;;;;;;;;4999456;28;20129;-21
2021/12/15 15:14:39;;;;;;;14.23;2.40;;;;;;;;;;5017024;28;20022;-20
2021/12/15 15:17:07;;;;;;;20.25;2.97;;;;;;;;;;5016729;28;20034;-19
2021/12/15 15:19:50;;;;;;;14.00;2.47;;;;;;;;;;5016616;28;20121;-19
2021/12/15 15:22:21;;;;;;;9.75;2.42;;;;;;;;;;5017218;28;20364;-19
2021/12/15 15:24:49;;;;;;;11.95;2.35;;;;;;;;;;5016561;28;20109;-20
2021/12/15 15:27:17;;;;;;;14.90;2.55;;;;;;;;;;5016400;28;20429;-20
2021/12/15 15:29:45;;;;;;;17.27;2.95;;;;;;;;;;5016454;28;20045;-19
2021/12/15 15:32:21;;;;;;;12.63;2.92;;;;;;;;;;5016495;28;20037;-20
2021/12/15 15:34:51;;;;;;;12.15;2.17;;;;;;;;;;5016542;28;20045;-19
2021/12/15 15:37:23;;;;;;;13.85;2.55;;;;;;;;;;5016379;28;20061;-19
2021/12/15 15:40:00;;;;;;;14.63;2.33;;;;;;;;;;5016590;28;20334;-19
2021/12/15 15:42:27;;;;;;;19.15;1.90;;;;;;;;;;5016538;28;20123;-18
2021/12/15 15:44:53;;;;;;;16.48;2.95;;;;;;;;;;5016547;28;20045;-19
2021/12/15 15:47:21;;;;;;;12.45;2.05;;;;;;;;;;5016138;28;20092;-20
2021/12/15 15:49:58;;;;;;;12.18;2.00;;;;;;;;;;5016085;28;20040;-20
2021/12/15 15:52:25;;;;;;;9.98;2.30;;;;;;;;;;5016242;28;20029;-20
2021/12/15 15:54:52;;;;;;;11.25;2.25;;;;;;;;;;5015823;28;20026;-20
2021/12/15 15:57:22;;;;;;;14.10;2.22;;;;;;;;;;5015567;28;20034;-19
2021/12/15 15:59:49;;;;;;;12.27;3.10;;;;;;;;;;5016317;28;20029;-20
2021/12/15 16:02:16;;;;;;;12.60;2.17;;;;;;;;;;5015552;28;20026;-20
2021/12/15 16:04:43;;;;;;;11.25;2.38;;;;;;;;;;5015020;28;20456;-21
2021/12/15 16:07:09;;;;;;;11.55;2.25;;;;;;;;;;5015190;28;20038;-20
2021/12/15 16:09:38;;;;;;;9.85;2.00;;;;;;;;;;5015847;28;20361;-20
2021/12/15 16:12:07;;;;;;;18.27;2.58;;;;;;;;;;4997544;28;20392;-20
2021/12/15 16:14:33;;;;;;;9.45;1.98;;;;;;;;;;5015303;28;20382;-20